Iraklis — D5GC7 — position and weather

sailwx.info

Track history (hours):
 
Tides and Currents Weather Stations Pressure Air Temp Water Temp Dewpoint Dewpoint Depression Visibility Wind Speed Wind Dir Waves Ship Positions

Iraklis

Last reported at 2018-Jun-18 20:54 UTC. Time now 2018-Jun-20 09:03 UTC.
Position N 36°05' W 005°12'.

Length 180 m; draft 10.3 m.

Type: Cargo ship. MMSI: 636016421.

Date/timePositionNaut miles runAvg speedWind from/ knotsBaromVisibWave heightAir tempDewpointWater temp
2018-Jun-18 20:54N 36°05' W 005°12'1 2.2
2018-Jun-18 20:16N 36°05' W 005°14'1 2.2
2018-Jun-18 20:00N 36°05' W 005°15'1 2.2
2018-Jun-18 19:30N 36°05' W 005°16'2 3.4
2018-Jun-18 19:00N 36°04' W 005°18'611.5
2018-Jun-18 18:30N 35°60' W 005°23'612.6
2018-Jun-18 18:00N 35°57' W 005°30'53512.0
2018-Jun-16 21:21N 29°16' W 012°31'411.7
2018-Jun-16 21:00N 29°12' W 012°33'1511.6
2018-Jun-16 19:41N 28°59' W 012°42'411.7
2018-Jun-16 19:19N 28°56' W 012°45'511.8
2018-Jun-16 18:52N 28°51' W 012°48'411.7
2018-Jun-16 18:30N 28°48' W 012°51'7412.1
2018-Jun-16 12:23N 27°47' W 013°39'512.3
2018-Jun-16 12:00N 27°44' W 013°43'612.1
2018-Jun-16 11:30N 27°39' W 013°47'  
Track history (hours):
 
Tides and Currents Weather Stations Pressure Air Temp Water Temp Dewpoint Dewpoint Depression Visibility Wind Speed Wind Dir Waves Ship Positions

Iraklis

Last reported at 2018-Jun-18 20:54 UTC. Time now 2018-Jun-20 09:03 UTC.
Position N 36°05' W 005°12'.

Length 180 m; draft 10.3 m.

Type: Cargo ship. MMSI: 636016421.

Date/timePositionNaut miles runAvg speedWind from/ knotsBaromVisibWave heightAir tempDewpointWater temp
2018-Jun-18 20:54N 36°05' W 005°12'1 2.2
2018-Jun-18 20:16N 36°05' W 005°14'1 2.2
2018-Jun-18 20:00N 36°05' W 005°15'1 2.2
2018-Jun-18 19:30N 36°05' W 005°16'2 3.4
2018-Jun-18 19:00N 36°04' W 005°18'611.5
2018-Jun-18 18:30N 35°60' W 005°23'612.6
2018-Jun-18 18:00N 35°57' W 005°30'53512.0
2018-Jun-16 21:21N 29°16' W 012°31'411.7
2018-Jun-16 21:00N 29°12' W 012°33'1511.6
2018-Jun-16 19:41N 28°59' W 012°42'411.7
2018-Jun-16 19:19N 28°56' W 012°45'511.8
2018-Jun-16 18:52N 28°51' W 012°48'411.7
2018-Jun-16 18:30N 28°48' W 012°51'7412.1
2018-Jun-16 12:23N 27°47' W 013°39'512.3
2018-Jun-16 12:00N 27°44' W 013°43'612.1
2018-Jun-16 11:30N 27°39' W 013°47'  

Dump ship's entire track history